createdAt,value
2022-12-22T00:00:56.761Z,22.27
2022-12-22T00:06:17.260Z,21.45
2022-12-22T00:11:38.716Z,19.73
2022-12-22T00:16:59.205Z,19.20
2022-12-22T00:22:23.972Z,29.85
2022-12-22T00:27:48.336Z,19.88
2022-12-22T00:33:08.921Z,19.90
2022-12-22T00:38:36.244Z,25.67
2022-12-22T00:43:56.783Z,29.02
2022-12-22T00:49:18.075Z,25.95
2022-12-22T00:54:38.942Z,23.05
2022-12-22T00:59:59.880Z,30.40
2022-12-22T01:05:20.283Z,25.52
2022-12-22T01:10:43.204Z,18.83
2022-12-22T01:16:03.594Z,27.17
2022-12-22T01:21:24.225Z,26.10
2022-12-22T01:26:45.065Z,24.10
2022-12-22T01:32:05.386Z,31.98
2022-12-22T01:37:25.795Z,22.15
2022-12-22T01:42:46.984Z,22.88
2022-12-22T01:48:07.282Z,25.73
2022-12-22T01:53:33.467Z,17.88
2022-12-22T01:58:58.876Z,19.90
2022-12-22T02:04:20.518Z,25.92
2022-12-22T02:09:58.618Z,23.20
2022-12-22T02:15:31.192Z,27.50
2022-12-22T02:21:27.075Z,28.15
2022-12-22T02:26:54.611Z,33.08
2022-12-22T02:32:15.487Z,22.90
2022-12-22T02:37:48.920Z,25.38
2022-12-22T02:43:33.783Z,28.92
2022-12-22T02:49:03.837Z,25.88
2022-12-22T02:54:25.895Z,19.60
2022-12-22T02:59:46.476Z,18.25
2022-12-22T03:05:06.532Z,18.10
2022-12-22T03:10:27.703Z,14.35
2022-12-22T03:15:48.210Z,9.43
2022-12-22T03:21:08.641Z,11.27
2022-12-22T03:26:10.287Z,7.90
2022-12-22T03:31:12.696Z,6.93
2022-12-22T03:36:14.449Z,7.57
2022-12-22T03:41:34.950Z,5.32
2022-12-22T03:46:36.703Z,5.43
2022-12-22T03:51:43.887Z,5.75
2022-12-22T03:56:45.970Z,3.97
2022-12-22T04:01:51.292Z,5.90
2022-12-22T04:06:53.847Z,5.53
2022-12-22T04:12:13.968Z,9.32
2022-12-22T04:17:15.645Z,4.90
2022-12-22T04:22:17.314Z,5.95
2022-12-22T04:27:18.905Z,6.60
2022-12-22T04:32:20.759Z,4.30
2022-12-22T04:37:22.441Z,5.78
2022-12-22T04:42:24.527Z,4.22
2022-12-22T04:47:26.203Z,5.90
2022-12-22T04:52:27.917Z,9.00
2022-12-22T04:57:29.584Z,8.10
2022-12-22T05:02:31.406Z,6.40
2022-12-22T05:07:33.338Z,6.33
2022-12-22T05:12:53.358Z,5.82
2022-12-22T05:17:55.982Z,8.93
2022-12-22T05:22:57.728Z,7.07
2022-12-22T05:27:59.660Z,8.30
2022-12-22T05:33:01.542Z,9.98
2022-12-22T05:38:03.431Z,7.87
2022-12-22T05:43:05.701Z,8.07
2022-12-22T05:48:07.385Z,11.55
2022-12-22T05:53:09.369Z,8.27
2022-12-22T05:58:11.682Z,10.75
2022-12-22T06:03:13.663Z,12.25
2022-12-22T06:08:15.463Z,13.97
2022-12-22T06:13:17.122Z,46.80
2022-12-22T06:18:19.490Z,18.15
2022-12-22T06:23:22.515Z,9.70
2022-12-22T06:33:25.857Z,7.93
2022-12-22T06:38:28.369Z,5.63
2022-12-22T06:48:32.296Z,6.95
2022-12-22T06:53:34.105Z,14.70
2022-12-22T06:58:35.788Z,7.22
2022-12-22T07:03:37.549Z,8.75
2022-12-22T07:08:39.309Z,5.45
2022-12-22T07:13:41.377Z,4.75
2022-12-22T07:18:43.660Z,4.07
2022-12-22T07:23:45.377Z,4.72
2022-12-22T07:28:47.022Z,4.85
2022-12-22T07:33:48.823Z,5.15
2022-12-22T07:38:51.872Z,5.28
2022-12-22T07:43:54.651Z,6.57
2022-12-22T07:49:14.956Z,4.88
2022-12-22T07:54:17.656Z,6.22
2022-12-22T07:59:19.905Z,5.45
2022-12-22T08:04:22.521Z,6.47
2022-12-22T08:09:24.500Z,5.75
2022-12-22T08:14:26.183Z,7.37
2022-12-22T08:19:28.019Z,5.05
2022-12-22T08:24:30.258Z,4.95
2022-12-22T08:29:48.467Z,5.05
2022-12-22T08:34:52.345Z,6.90
2022-12-22T08:40:16.286Z,4.40
2022-12-22T08:45:17.877Z,4.25
2022-12-22T08:50:19.475Z,6.93
2022-12-22T08:55:24.152Z,7.05
2022-12-22T09:00:26.195Z,4.95
2022-12-22T09:05:28.369Z,6.70
2022-12-22T09:10:30.085Z,6.78
2022-12-22T09:15:31.995Z,6.17
2022-12-22T09:20:33.676Z,6.75
2022-12-22T09:25:35.413Z,9.50
2022-12-22T09:30:37.452Z,7.37
2022-12-22T09:35:41.470Z,12.50
2022-12-22T09:40:43.743Z,10.60
2022-12-22T09:45:45.940Z,9.75
2022-12-22T09:50:48.137Z,9.97
2022-12-22T09:55:51.095Z,10.13
2022-12-22T10:01:07.891Z,12.00
2022-12-22T10:06:12.454Z,8.32
2022-12-22T10:11:18.687Z,8.60
2022-12-22T10:16:27.043Z,6.22
2022-12-22T10:21:28.879Z,7.88
2022-12-22T10:26:34.284Z,6.30
2022-12-22T10:31:54.561Z,5.93
2022-12-22T10:37:00.504Z,8.20
2022-12-22T10:42:13.594Z,6.15
2022-12-22T10:47:20.369Z,7.38
2022-12-22T10:52:31.922Z,7.00
2022-12-22T10:57:34.252Z,7.30
2022-12-22T11:02:38.492Z,6.63
2022-12-22T11:07:42.816Z,8.55
2022-12-22T11:13:02.438Z,8.82
2022-12-22T11:18:37.850Z,5.03
2022-12-22T11:23:42.381Z,5.65
2022-12-22T11:29:10.320Z,5.03
2022-12-22T11:34:44.273Z,8.60
2022-12-22T11:40:24.781Z,3.90
2022-12-22T11:45:51.133Z,8.88
2022-12-22T11:51:10.890Z,6.35
2022-12-22T11:56:23.689Z,9.63
2022-12-22T12:01:45.124Z,7.45
2022-12-22T12:07:13.237Z,7.90
2022-12-22T12:12:42.058Z,7.88
2022-12-22T12:18:06.897Z,9.55
2022-12-22T12:23:20.565Z,9.70
2022-12-22T12:28:44.399Z,11.13
2022-12-22T12:33:53.067Z,10.35
2022-12-22T12:39:09.674Z,10.00
2022-12-22T12:44:17.899Z,17.15
2022-12-22T12:49:34.606Z,12.98
2022-12-22T12:54:42.207Z,8.68
2022-12-22T12:59:47.751Z,9.98
2022-12-22T13:05:08.165Z,11.45
2022-12-22T13:10:20.975Z,10.30
2022-12-22T13:15:33.448Z,15.70
2022-12-22T13:20:36.962Z,25.05
2022-12-22T13:25:53.193Z,12.43
2022-12-22T13:31:02.629Z,9.35
2022-12-22T13:36:08.395Z,13.60
2022-12-22T13:41:26.509Z,12.20
2022-12-22T13:46:30.147Z,13.63
2022-12-22T13:56:45.961Z,17.08
2022-12-22T14:01:56.436Z,11.23
2022-12-22T14:07:19.223Z,12.30
2022-12-22T14:12:35.385Z,10.90
2022-12-22T14:17:44.557Z,10.23
2022-12-22T14:22:57.663Z,10.77
2022-12-22T14:28:00.303Z,11.77
2022-12-22T14:33:28.554Z,11.75
2022-12-22T14:38:39.611Z,10.27
2022-12-22T14:43:41.410Z,11.50
2022-12-22T14:48:46.996Z,8.27
2022-12-22T14:53:54.399Z,11.13
2022-12-22T14:59:23.053Z,14.70
2022-12-22T15:04:24.948Z,10.00
2022-12-22T15:14:49.406Z,11.88
2022-12-22T15:19:54.400Z,8.53
2022-12-22T15:24:56.138Z,8.77
2022-12-22T15:29:57.834Z,12.73
2022-12-22T15:35:03.241Z,11.15
2022-12-22T15:40:12.539Z,11.35
2022-12-22T15:45:14.681Z,10.75
2022-12-22T15:50:23.344Z,9.73
2022-12-22T15:55:25.796Z,13.27
2022-12-22T16:00:27.482Z,10.90
2022-12-22T16:05:29.153Z,13.60
2022-12-22T16:10:33.858Z,10.70
2022-12-22T16:15:35.657Z,12.38
2022-12-22T16:20:41.221Z,13.43
2022-12-22T16:25:44.782Z,17.83
2022-12-22T16:30:47.420Z,10.77
2022-12-22T16:35:49.199Z,13.13
2022-12-22T16:40:52.986Z,14.25
2022-12-22T16:45:54.842Z,16.27
2022-12-22T16:50:56.709Z,25.00
2022-12-22T16:56:00.262Z,20.70
2022-12-22T17:01:01.888Z,22.08
2022-12-22T17:06:05.207Z,18.40
2022-12-22T17:11:11.149Z,13.55
2022-12-22T17:16:21.971Z,15.75
2022-12-22T17:21:24.487Z,21.10
2022-12-22T17:26:26.211Z,16.25
2022-12-22T17:31:28.100Z,21.30
2022-12-22T17:36:37.704Z,12.03
2022-12-22T17:41:39.904Z,11.40
2022-12-22T17:46:42.263Z,16.40
2022-12-22T17:51:44.131Z,14.87
2022-12-22T17:56:45.899Z,17.45
2022-12-22T18:01:47.637Z,16.70
2022-12-22T18:06:49.529Z,13.33
2022-12-22T18:11:51.944Z,18.27
2022-12-22T18:16:53.857Z,13.25
2022-12-22T18:21:55.671Z,17.73
2022-12-22T18:26:57.617Z,19.80
2022-12-22T18:31:59.465Z,15.27
2022-12-22T18:37:02.745Z,14.80
2022-12-22T18:42:18.915Z,17.75
2022-12-22T18:47:20.596Z,14.75
2022-12-22T18:52:23.539Z,15.90
2022-12-22T18:57:25.251Z,13.07
2022-12-22T19:02:29.533Z,17.17
2022-12-22T19:07:31.304Z,19.80
2022-12-22T19:12:33.060Z,12.82
2022-12-22T19:17:34.918Z,13.43
2022-12-22T19:22:36.562Z,17.67
2022-12-22T19:27:38.304Z,16.73
2022-12-22T19:32:43.208Z,21.65
2022-12-22T19:37:46.165Z,16.15
2022-12-22T19:47:52.736Z,18.52
2022-12-22T19:52:56.283Z,14.50
2022-12-22T19:57:58.085Z,14.02
2022-12-22T20:03:00.093Z,10.07
2022-12-22T20:08:02.161Z,9.23
2022-12-22T20:13:07.136Z,7.67
2022-12-22T20:18:19.599Z,5.18
2022-12-22T20:23:23.591Z,7.80
2022-12-22T20:28:31.277Z,6.85
2022-12-22T20:33:33.763Z,7.90
2022-12-22T20:38:38.211Z,6.90
2022-12-22T20:43:40.078Z,9.13
2022-12-22T20:48:48.840Z,8.13
2022-12-22T20:53:51.143Z,8.32
2022-12-22T20:58:53.771Z,12.57
2022-12-22T21:03:55.616Z,14.35
2022-12-22T21:08:59.344Z,18.25
2022-12-22T21:14:01.220Z,13.43
2022-12-22T21:19:04.299Z,12.55
2022-12-22T21:24:06.388Z,15.23
2022-12-22T21:29:14.150Z,12.97
2022-12-22T21:34:15.958Z,12.13
2022-12-22T21:39:33.276Z,10.77
2022-12-22T21:44:35.505Z,11.63
2022-12-22T21:49:37.453Z,14.10
2022-12-22T21:54:39.203Z,9.75
2022-12-22T21:59:40.977Z,10.32
2022-12-22T22:04:46.658Z,7.85
2022-12-22T22:09:51.853Z,11.85
2022-12-22T22:14:53.575Z,7.60
2022-12-22T22:19:55.359Z,9.10
2022-12-22T22:24:57.128Z,10.75
2022-12-22T22:29:58.884Z,12.40
2022-12-22T22:35:01.038Z,10.43
2022-12-22T22:40:03.233Z,9.10
2022-12-22T22:45:05.776Z,12.88
2022-12-22T22:50:08.912Z,11.50
2022-12-22T22:55:12.654Z,15.38
2022-12-22T23:00:16.881Z,14.85
2022-12-22T23:05:22.648Z,12.60
2022-12-22T23:10:25.062Z,8.75
2022-12-22T23:15:26.682Z,12.93
2022-12-22T23:20:28.496Z,11.40
2022-12-22T23:25:30.156Z,12.18
2022-12-22T23:30:31.986Z,11.55
2022-12-22T23:35:37.924Z,13.18
2022-12-22T23:40:55.715Z,11.00
2022-12-22T23:45:57.648Z,13.38
2022-12-22T23:50:59.407Z,9.70
2022-12-22T23:56:01.700Z,12.05
